createdAt,value
2022-11-17T00:04:32.239Z,97892.19
2022-11-17T00:09:39.427Z,97888.19
2022-11-17T00:14:46.631Z,97886.90
2022-11-17T00:20:09.760Z,97883.09
2022-11-17T00:25:17.557Z,97884.44
2022-11-17T00:30:44.064Z,97896.02
2022-11-17T00:35:56.416Z,97900.85
2022-11-17T00:41:03.687Z,97900.52
2022-11-17T00:46:09.150Z,97911.20
2022-11-17T00:51:16.655Z,97912.50
2022-11-17T00:56:23.958Z,97910.91
2022-11-17T01:01:30.344Z,97908.34
2022-11-17T01:06:41.117Z,97909.34
2022-11-17T01:11:48.786Z,97904.77
2022-11-17T01:16:56.658Z,97903.86
2022-11-17T01:22:04.265Z,97901.85
2022-11-17T01:27:11.349Z,97889.48
2022-11-17T01:32:16.823Z,97880.75
2022-11-17T01:37:23.926Z,97864.42
2022-11-17T01:42:29.790Z,97869.38
2022-11-17T01:47:44.250Z,97877.79
2022-11-17T01:52:53.159Z,97881.38
2022-11-17T01:58:04.167Z,97878.89
2022-11-17T02:03:12.185Z,97890.60
2022-11-17T02:08:22.255Z,97890.80
2022-11-17T02:13:29.917Z,97889.36
2022-11-17T02:18:36.866Z,97890.84
2022-11-17T02:24:01.584Z,97889.12
2022-11-17T02:29:14.676Z,97893.19
2022-11-17T02:34:29.822Z,97890.35
2022-11-17T02:39:44.774Z,97878.52
2022-11-17T02:44:58.122Z,97871.02
2022-11-17T02:50:10.602Z,97851.70
2022-11-17T02:55:17.835Z,97845.61
2022-11-17T03:00:25.783Z,97852.64
2022-11-17T03:05:40.460Z,97858.17
2022-11-17T03:10:58.502Z,97870.36
2022-11-17T03:16:14.293Z,97882.11
2022-11-17T03:21:28.249Z,97877.10
2022-11-17T03:26:39.442Z,97874.25
2022-11-17T03:31:49.937Z,97878.88
2022-11-17T03:37:02.346Z,97872.91
2022-11-17T03:42:16.292Z,97877.36
2022-11-17T03:47:26.517Z,97875.13
2022-11-17T03:52:35.174Z,97876.96
2022-11-17T03:57:49.323Z,97880.95
2022-11-17T04:02:59.941Z,97883.30
2022-11-17T04:08:07.508Z,97885.77
2022-11-17T04:13:35.355Z,97882.95
2022-11-17T04:18:43.157Z,97878.05
2022-11-17T04:23:50.675Z,97879.35
2022-11-17T04:28:58.366Z,97880.67
2022-11-17T04:34:08.149Z,97888.66
2022-11-17T04:39:16.950Z,97892.41
2022-11-17T04:44:26.684Z,97895.95
2022-11-17T04:49:34.815Z,97900.25
2022-11-17T04:54:42.040Z,97892.92
2022-11-17T04:59:48.013Z,97888.20
2022-11-17T05:04:58.415Z,97891.89
2022-11-17T05:10:06.348Z,97894.54
2022-11-17T05:15:33.397Z,97897.11
2022-11-17T05:20:42.712Z,97897.55
2022-11-17T05:25:49.671Z,97897.52
2022-11-17T05:30:56.707Z,97898.30
2022-11-17T05:36:03.709Z,97897.23
2022-11-17T05:41:10.957Z,97900.11
2022-11-17T05:46:18.411Z,97900.54
2022-11-17T05:51:26.788Z,97905.96
2022-11-17T05:56:41.306Z,97912.01
2022-11-17T06:01:52.437Z,97911.44
2022-11-17T06:07:00.409Z,97911.86
2022-11-17T06:12:08.648Z,97918.63
2022-11-17T06:17:22.844Z,97935.67
2022-11-17T06:22:31.453Z,97946.04
2022-11-17T06:27:40.654Z,97954.71
2022-11-17T06:32:50.441Z,97950.90
2022-11-17T06:37:57.495Z,97960.16
2022-11-17T06:43:10.780Z,97956.20
2022-11-17T06:48:25.461Z,97957.73
2022-11-17T06:53:33.202Z,97966.60
2022-11-17T06:58:41.965Z,97970.06
2022-11-17T07:03:48.911Z,97976.91
2022-11-17T07:08:54.980Z,97975.04
2022-11-17T07:14:01.815Z,97974.27
2022-11-17T07:19:10.092Z,97970.04
2022-11-17T07:24:17.100Z,97969.16
2022-11-17T07:29:24.264Z,97972.64
2022-11-17T07:34:31.497Z,97975.64
2022-11-17T07:39:38.592Z,97980.25
2022-11-17T07:44:44.176Z,97983.46
2022-11-17T07:49:51.449Z,97995.94
2022-11-17T07:54:58.646Z,98000.96
2022-11-17T08:00:04.880Z,97996.58
2022-11-17T08:05:12.867Z,97999.36
2022-11-17T08:10:20.597Z,97996.00
2022-11-17T08:15:28.166Z,97988.58
2022-11-17T08:20:35.283Z,97985.79
2022-11-17T08:25:42.192Z,97985.35
2022-11-17T08:30:49.409Z,97992.41
2022-11-17T08:35:59.575Z,97991.48
2022-11-17T08:41:09.334Z,97996.30
2022-11-17T08:46:16.684Z,98004.30
2022-11-17T08:51:25.329Z,98008.30
2022-11-17T08:56:32.722Z,98010.48
2022-11-17T09:01:40.148Z,98014.38
2022-11-17T09:06:47.331Z,98020.66
2022-11-17T09:11:56.083Z,98025.95
2022-11-17T09:17:03.868Z,98016.27
2022-11-17T09:22:11.014Z,98014.36
2022-11-17T09:27:16.533Z,98009.83
2022-11-17T09:32:23.842Z,98010.61
2022-11-17T09:37:29.682Z,98005.70
2022-11-17T09:42:41.218Z,98013.59
2022-11-17T09:48:06.971Z,98018.77
2022-11-17T09:53:27.061Z,98012.07
2022-11-17T09:58:41.056Z,98016.40
2022-11-17T10:03:50.856Z,98020.04
2022-11-17T10:09:02.980Z,98014.95
2022-11-17T10:14:17.279Z,98011.66
2022-11-17T10:19:26.560Z,98009.20
2022-11-17T10:24:38.830Z,98015.09
2022-11-17T10:29:59.575Z,98010.64
2022-11-17T10:35:19.789Z,98010.82
2022-11-17T10:40:28.588Z,98012.70
2022-11-17T10:45:36.481Z,98007.84
2022-11-17T10:50:54.783Z,98013.39
2022-11-17T10:56:05.834Z,98017.20
2022-11-17T11:01:13.513Z,98017.66
2022-11-17T11:06:29.860Z,98022.58
2022-11-17T11:11:44.245Z,98018.91
2022-11-17T11:16:52.855Z,98021.11
2022-11-17T11:22:25.047Z,98015.02
2022-11-17T11:27:48.063Z,98018.57
2022-11-17T11:33:07.891Z,98020.80
2022-11-17T11:38:40.031Z,98028.50
2022-11-17T11:43:58.762Z,98030.98
2022-11-17T11:49:15.437Z,98029.43
2022-11-17T11:54:36.279Z,98028.95
2022-11-17T11:59:57.176Z,98029.98
2022-11-17T12:05:20.610Z,98029.23
2022-11-17T12:10:33.187Z,98025.05
2022-11-17T12:15:40.685Z,98011.92
2022-11-17T12:21:05.917Z,98002.11
2022-11-17T12:26:27.501Z,98010.02
2022-11-17T12:31:48.923Z,98011.52
2022-11-17T12:37:26.420Z,98021.02
2022-11-17T12:42:34.959Z,98024.48
2022-11-17T12:47:59.140Z,98033.52
2022-11-17T12:53:32.498Z,98039.40
2022-11-17T12:58:54.570Z,98040.73
2022-11-17T13:04:09.004Z,98036.73
2022-11-17T13:09:16.268Z,98039.22
2022-11-17T13:14:23.809Z,98060.42
2022-11-17T13:19:34.767Z,98061.06
2022-11-17T13:24:44.088Z,98047.73
2022-11-17T13:29:51.443Z,98052.59
2022-11-17T13:35:00.806Z,98056.23
2022-11-17T13:40:22.882Z,98063.52
2022-11-17T13:45:30.154Z,98072.20
2022-11-17T13:50:40.148Z,98068.77
2022-11-17T13:55:48.485Z,98062.14
2022-11-17T14:00:58.285Z,98064.59
2022-11-17T14:06:07.091Z,98072.52
2022-11-17T14:11:22.553Z,98065.55
2022-11-17T14:16:34.241Z,98058.67
2022-11-17T14:22:01.120Z,98053.33
2022-11-17T14:27:34.985Z,98050.33
2022-11-17T14:32:42.212Z,98056.20
2022-11-17T14:37:49.594Z,98069.08
2022-11-17T14:42:56.546Z,98062.51
2022-11-17T14:48:04.335Z,98065.54
2022-11-17T14:53:11.368Z,98058.24
2022-11-17T14:58:18.944Z,98054.63
2022-11-17T15:03:26.407Z,98054.44
2022-11-17T15:08:33.598Z,98043.30
2022-11-17T15:13:38.994Z,98042.59
2022-11-17T15:18:49.472Z,98033.37
2022-11-17T15:23:56.664Z,98030.79
2022-11-17T15:29:02.368Z,98023.23
2022-11-17T15:34:13.345Z,98024.18
2022-11-17T15:39:22.777Z,98013.83
2022-11-17T15:44:30.394Z,98012.93
2022-11-17T15:49:37.599Z,98012.41
2022-11-17T15:54:44.789Z,98017.10
2022-11-17T15:59:50.573Z,98016.35
2022-11-17T16:04:58.038Z,98015.21
2022-11-17T16:10:05.565Z,98006.94
2022-11-17T16:15:13.601Z,98010.55
2022-11-17T16:20:21.609Z,98003.12
2022-11-17T16:25:28.906Z,97996.77
2022-11-17T16:30:37.026Z,97997.55
2022-11-17T16:35:46.421Z,97993.80
2022-11-17T16:40:53.850Z,97999.80
2022-11-17T16:46:01.093Z,98006.02
2022-11-17T16:51:08.592Z,98001.85
2022-11-17T16:56:16.303Z,98004.64
2022-11-17T17:01:25.355Z,98016.11
2022-11-17T17:06:33.099Z,98022.27
2022-11-17T17:11:40.584Z,98027.98
2022-11-17T17:16:47.839Z,98023.97
2022-11-17T17:21:55.310Z,98032.74
2022-11-17T17:27:02.590Z,98037.20
2022-11-17T17:32:10.197Z,98045.36
2022-11-17T17:37:18.274Z,98042.95
2022-11-17T17:42:25.562Z,98036.99
2022-11-17T17:47:30.986Z,98029.61
2022-11-17T17:52:37.952Z,98017.63
2022-11-17T17:57:44.953Z,98014.39
2022-11-17T18:02:52.092Z,98010.35
2022-11-17T18:07:57.686Z,98009.33
2022-11-17T18:13:09.387Z,98006.39
2022-11-17T18:18:17.847Z,98013.66
2022-11-17T18:23:25.344Z,98016.42
2022-11-17T18:28:32.964Z,98021.77
2022-11-17T18:33:40.974Z,98020.52
2022-11-17T18:38:48.240Z,98018.08
2022-11-17T18:43:56.066Z,98008.24
2022-11-17T18:49:03.421Z,97999.09
2022-11-17T18:54:12.137Z,97996.17
2022-11-17T18:59:19.669Z,97984.71
2022-11-17T19:04:27.231Z,97978.80
2022-11-17T19:09:34.453Z,97983.48
2022-11-17T19:14:41.546Z,97979.75
2022-11-17T19:19:47.416Z,97978.61
2022-11-17T19:24:54.505Z,97970.93
2022-11-17T19:30:01.471Z,97954.40
2022-11-17T19:35:15.720Z,97947.76
2022-11-17T19:40:25.978Z,97948.30
2022-11-17T19:45:33.129Z,97956.10
2022-11-17T19:50:40.037Z,97964.71
2022-11-17T19:55:47.024Z,97977.67
2022-11-17T20:00:53.003Z,97981.02
2022-11-17T20:06:03.827Z,97980.39
2022-11-17T20:11:12.944Z,97980.27
2022-11-17T20:16:22.129Z,97980.11
2022-11-17T20:21:30.911Z,97979.21
2022-11-17T20:26:40.894Z,97982.27
2022-11-17T20:31:48.078Z,97984.00
2022-11-17T20:36:55.587Z,97985.98
2022-11-17T20:42:02.572Z,97980.34
2022-11-17T20:47:09.603Z,97968.09
2022-11-17T20:52:16.770Z,97971.02
2022-11-17T20:57:22.553Z,97971.23
2022-11-17T21:02:29.642Z,97969.05
2022-11-17T21:07:35.305Z,97958.91
2022-11-17T21:12:42.393Z,97959.19
2022-11-17T21:18:07.249Z,97951.44
2022-11-17T21:23:14.394Z,97947.73
2022-11-17T21:28:22.603Z,97947.13
2022-11-17T21:33:29.965Z,97930.77
2022-11-17T21:38:37.236Z,97923.78
2022-11-17T21:43:46.050Z,97909.36
2022-11-17T21:48:54.356Z,97896.80
2022-11-17T21:54:03.756Z,97895.40
2022-11-17T21:59:14.368Z,97897.10
2022-11-17T22:04:22.614Z,97884.18
2022-11-17T22:09:29.855Z,97878.71
2022-11-17T22:14:35.343Z,97881.66
2022-11-17T22:19:42.410Z,97888.09
2022-11-17T22:24:50.052Z,97886.36
2022-11-17T22:29:57.144Z,97887.21
2022-11-17T22:35:04.109Z,97885.30
2022-11-17T22:40:12.538Z,97886.08
2022-11-17T22:45:19.634Z,97889.53
2022-11-17T22:50:25.091Z,97886.11
2022-11-17T22:55:34.140Z,97875.48
2022-11-17T23:00:41.955Z,97870.07
2022-11-17T23:05:47.412Z,97862.37
2022-11-17T23:11:29.521Z,97863.36
2022-11-17T23:16:27.532Z,97858.81
2022-11-17T23:21:33.242Z,97856.23
2022-11-17T23:26:40.779Z,97854.70
2022-11-17T23:31:47.966Z,97849.77
2022-11-17T23:36:59.505Z,97838.91
2022-11-17T23:42:09.684Z,97835.27
2022-11-17T23:47:15.109Z,97827.67
2022-11-17T23:52:22.113Z,97831.10
2022-11-17T23:57:29.111Z,97823.33
